Kaumakani, Hawaii
Current Conditions -  °F | °C
As of 2:56 PM on Friday 24 Oct 2014 (Local Time) from PHBK Reporting Station
Few Clouds Few Clouds  
Wind Chill: 84°   Ceiling: Unl
Heat Index: 88°   Visibility: 10mi
Dew Point: 70°   Wind: 7mph
Humidity: 63%   Direction: 300°WNW
Pressure: 29.97"   Gusts: NA
Location:  21.91°N, 159.61°W
Report Text: PHBK 250056Z AUTO 30006KT 10SM FEW042 FEW060 FEW075 29/21 A2997 RMK AO2 SLP150 T02890211
Loading
Personal Weather Stations






























Interactive Weather Map
Tropical Storm Tracking
New forecast layout! Learn more

10-Day Weather Forecast

Advertisements
Track Severe Weather on mobile